createdAt,value
2022-12-13T00:01:45.309Z,31.88
2022-12-13T00:04:11.960Z,32.03
2022-12-13T00:06:38.482Z,29.85
2022-12-13T00:09:05.855Z,31.00
2022-12-13T00:11:32.884Z,29.15
2022-12-13T00:13:59.342Z,33.08
2022-12-13T00:16:26.921Z,30.63
2022-12-13T00:18:58.373Z,33.05
2022-12-13T00:21:28.327Z,30.70
2022-12-13T00:23:55.676Z,32.40
2022-12-13T00:26:25.242Z,31.40
2022-12-13T00:28:52.934Z,31.52
2022-12-13T00:34:08.058Z,33.50
2022-12-13T00:36:35.846Z,31.83
2022-12-13T00:39:02.415Z,32.88
2022-12-13T00:41:34.485Z,32.00
2022-12-13T00:44:02.921Z,32.55
2022-12-13T00:46:29.992Z,30.80
2022-12-13T00:48:59.269Z,28.65
2022-12-13T00:51:28.276Z,27.92
2022-12-13T00:53:54.947Z,27.95
2022-12-13T00:56:25.423Z,32.63
2022-12-13T00:58:53.153Z,28.02
2022-12-13T01:01:24.589Z,30.77
2022-12-13T01:03:53.789Z,30.48
2022-12-13T01:06:23.069Z,28.35
2022-12-13T01:08:49.993Z,32.83
2022-12-13T01:11:17.481Z,28.00
2022-12-13T01:13:44.664Z,27.08
2022-12-13T01:16:12.468Z,29.73
2022-12-13T01:18:40.636Z,28.45
2022-12-13T01:21:07.019Z,26.58
2022-12-13T01:23:34.265Z,27.13
2022-12-13T01:26:05.175Z,29.90
2022-12-13T01:28:32.687Z,28.90
2022-12-13T01:31:05.118Z,23.20
2022-12-13T01:33:32.432Z,22.83
2022-12-13T01:36:03.695Z,24.25
2022-12-13T01:38:30.175Z,25.55
2022-12-13T01:41:00.299Z,23.85
2022-12-13T01:43:49.256Z,24.50
2022-12-13T01:46:17.751Z,22.58
2022-12-13T01:49:01.183Z,23.92
2022-12-13T01:51:47.223Z,24.40
2022-12-13T01:54:21.131Z,28.13
2022-12-13T01:57:00.626Z,26.23
2022-12-13T01:59:28.080Z,25.88
2022-12-13T02:01:54.563Z,26.25
2022-12-13T02:04:31.805Z,23.17
2022-12-13T02:06:58.796Z,30.52
2022-12-13T02:09:26.183Z,29.38
2022-12-13T02:11:53.041Z,28.73
2022-12-13T02:14:19.515Z,27.95
2022-12-13T02:16:48.920Z,23.60
2022-12-13T02:19:48.516Z,24.58
2022-12-13T02:22:26.866Z,27.63
2022-12-13T02:25:05.783Z,27.40
2022-12-13T02:27:42.803Z,24.65
2022-12-13T02:30:30.505Z,25.52
2022-12-13T02:33:21.455Z,26.60
2022-12-13T02:36:01.609Z,25.45
2022-12-13T02:38:44.776Z,24.63
2022-12-13T02:41:21.765Z,25.45
2022-12-13T02:44:01.131Z,23.85
2022-12-13T02:46:32.719Z,25.63
2022-12-13T02:49:00.622Z,30.10
2022-12-13T02:51:28.829Z,22.40
2022-12-13T02:53:55.500Z,23.65
2022-12-13T02:56:22.018Z,26.05
2022-12-13T02:58:52.418Z,25.48
2022-12-13T03:01:28.939Z,23.90
2022-12-13T03:04:01.991Z,21.45
2022-12-13T03:07:17.734Z,24.67
2022-12-13T03:10:01.541Z,19.25
2022-12-13T03:15:29.802Z,24.92
2022-12-13T03:18:17.887Z,24.48
2022-12-13T03:20:57.827Z,25.13
2022-12-13T03:23:25.448Z,21.30
2022-12-13T03:25:59.504Z,20.58
2022-12-13T03:28:26.029Z,19.58
2022-12-13T03:30:52.560Z,22.60
2022-12-13T03:33:19.051Z,23.60
2022-12-13T03:35:46.129Z,25.27
2022-12-13T03:38:21.231Z,27.00
2022-12-13T03:40:52.367Z,27.35
2022-12-13T03:43:22.392Z,30.50
2022-12-13T03:45:50.975Z,23.17
2022-12-13T03:48:22.231Z,23.40
2022-12-13T03:50:50.829Z,26.40
2022-12-13T03:53:32.025Z,26.23
2022-12-13T03:56:01.344Z,22.85
2022-12-13T03:58:36.398Z,24.10
2022-12-13T04:01:14.718Z,25.98
2022-12-13T04:03:42.994Z,22.42
2022-12-13T04:06:09.917Z,22.00
2022-12-13T04:08:37.894Z,26.25
2022-12-13T04:11:25.276Z,23.55
2022-12-13T04:13:52.499Z,23.27
2022-12-13T04:16:19.447Z,22.13
2022-12-13T04:18:46.010Z,21.30
2022-12-13T04:21:12.438Z,22.33
2022-12-13T04:23:38.935Z,24.63
2022-12-13T04:26:05.639Z,22.58
2022-12-13T04:28:32.190Z,18.85
2022-12-13T04:30:58.702Z,23.58
2022-12-13T04:33:25.599Z,22.40
2022-12-13T04:35:52.231Z,20.92
2022-12-13T04:38:19.017Z,22.38
2022-12-13T04:40:45.991Z,19.77
2022-12-13T04:43:12.443Z,23.30
2022-12-13T04:45:39.007Z,23.38
2022-12-13T04:48:05.934Z,22.65
2022-12-13T04:50:32.798Z,21.83
2022-12-13T04:52:59.359Z,21.33
2022-12-13T04:55:25.865Z,20.02
2022-12-13T04:57:52.379Z,25.30
2022-12-13T05:00:20.287Z,22.20
2022-12-13T05:02:46.800Z,21.52
2022-12-13T05:05:13.668Z,23.48
2022-12-13T05:07:42.193Z,19.98
2022-12-13T05:10:10.572Z,19.52
2022-12-13T05:12:37.067Z,23.70
2022-12-13T05:15:03.859Z,22.65
2022-12-13T05:17:30.417Z,25.85
2022-12-13T05:19:56.897Z,27.33
2022-12-13T05:22:23.450Z,25.20
2022-12-13T05:24:50.035Z,22.63
2022-12-13T05:27:25.780Z,22.67
2022-12-13T05:30:03.245Z,19.00
2022-12-13T05:32:44.120Z,20.08
2022-12-13T05:35:23.496Z,18.38
2022-12-13T05:37:54.113Z,25.80
2022-12-13T05:40:23.021Z,23.17
2022-12-13T05:42:49.981Z,24.83
2022-12-13T05:45:19.010Z,17.98
2022-12-13T05:47:46.016Z,23.98
2022-12-13T05:50:14.154Z,24.52
2022-12-13T05:52:40.650Z,25.35
2022-12-13T05:55:07.439Z,24.85
2022-12-13T05:57:34.273Z,21.63
2022-12-13T06:00:00.859Z,21.08
2022-12-13T06:02:27.803Z,22.65
2022-12-13T06:04:54.422Z,23.92
2022-12-13T06:07:21.133Z,25.77
2022-12-13T06:09:47.591Z,21.35
2022-12-13T06:12:30.940Z,22.77
2022-12-13T06:15:00.931Z,22.05
2022-12-13T06:17:37.585Z,20.63
2022-12-13T06:20:23.639Z,20.05
2022-12-13T06:22:52.134Z,21.35
2022-12-13T06:25:30.643Z,26.02
2022-12-13T06:28:01.795Z,20.63
2022-12-13T06:30:31.915Z,19.40
2022-12-13T06:32:58.480Z,22.00
2022-12-13T06:35:28.914Z,21.90
2022-12-13T06:38:01.605Z,24.13
2022-12-13T06:40:31.358Z,31.77
2022-12-13T06:42:58.129Z,18.88
2022-12-13T06:45:25.382Z,26.23
2022-12-13T06:47:52.085Z,27.92
2022-12-13T06:50:18.622Z,23.42
2022-12-13T06:52:46.471Z,23.65
2022-12-13T06:55:12.981Z,20.98
2022-12-13T06:57:40.885Z,19.90
2022-12-13T07:00:09.514Z,26.88
2022-12-13T07:02:36.268Z,20.42
2022-12-13T07:05:02.879Z,20.45
2022-12-13T07:07:29.895Z,20.45
2022-12-13T07:09:56.431Z,20.63
2022-12-13T07:12:23.522Z,28.02
2022-12-13T07:14:50.461Z,18.95
2022-12-13T07:17:33.281Z,18.85
2022-12-13T07:20:08.160Z,23.23
2022-12-13T07:22:38.770Z,23.20
2022-12-13T07:25:26.924Z,20.35
2022-12-13T07:28:03.508Z,19.95
2022-12-13T07:30:32.915Z,17.38
2022-12-13T07:33:01.934Z,20.38
2022-12-13T07:35:29.073Z,21.75
2022-12-13T07:37:55.845Z,20.60
2022-12-13T07:40:22.579Z,18.40
2022-12-13T07:42:56.055Z,16.50
2022-12-13T07:45:23.463Z,21.08
2022-12-13T07:47:49.994Z,17.23
2022-12-13T07:50:24.990Z,19.60
2022-12-13T07:52:53.503Z,18.80
2022-12-13T07:55:23.488Z,21.55
2022-12-13T07:58:05.260Z,20.13
2022-12-13T08:00:32.255Z,23.85
2022-12-13T08:03:00.900Z,22.10
2022-12-13T08:05:28.166Z,21.52
2022-12-13T08:07:54.809Z,19.48
2022-12-13T08:10:21.703Z,25.27
2022-12-13T08:12:50.064Z,25.30
2022-12-13T08:15:17.778Z,21.70
2022-12-13T08:17:44.453Z,24.42
2022-12-13T08:20:11.631Z,23.48
2022-12-13T08:22:38.114Z,20.42
2022-12-13T08:25:06.373Z,22.85
2022-12-13T08:27:33.352Z,20.15
2022-12-13T08:29:59.825Z,22.58
2022-12-13T08:32:26.693Z,20.75
2022-12-13T08:34:53.242Z,21.63
2022-12-13T08:37:19.703Z,21.15
2022-12-13T08:39:46.163Z,19.80
2022-12-13T08:42:19.839Z,20.00
2022-12-13T08:44:51.465Z,19.52
2022-12-13T08:47:26.065Z,22.75
2022-12-13T08:50:02.530Z,19.20
2022-12-13T08:52:31.746Z,20.38
2022-12-13T08:54:58.281Z,25.88
2022-12-13T08:57:24.946Z,23.40
2022-12-13T08:59:51.445Z,25.70
2022-12-13T09:02:18.131Z,19.92
2022-12-13T09:04:44.774Z,27.42
2022-12-13T09:07:11.594Z,24.80
2022-12-13T09:09:38.112Z,22.10
2022-12-13T09:12:10.667Z,20.00
2022-12-13T09:14:37.796Z,17.88
2022-12-13T09:17:24.176Z,18.25
2022-12-13T09:19:58.079Z,21.38
2022-12-13T09:22:33.579Z,19.85
2022-12-13T09:25:02.473Z,27.15
2022-12-13T09:27:30.803Z,22.35
2022-12-13T09:30:07.991Z,21.80
2022-12-13T09:32:34.474Z,20.20
2022-12-13T09:35:00.904Z,22.30
2022-12-13T09:37:27.552Z,21.50
2022-12-13T09:39:55.137Z,20.58
2022-12-13T09:42:30.159Z,22.73
2022-12-13T09:45:06.421Z,23.10
2022-12-13T09:47:50.629Z,24.05
2022-12-13T09:50:27.061Z,23.67
2022-12-13T09:52:59.844Z,21.42
2022-12-13T09:55:30.760Z,19.50
2022-12-13T09:57:59.393Z,24.58
2022-12-13T10:00:33.110Z,22.42
2022-12-13T10:03:00.587Z,22.20
2022-12-13T10:05:39.141Z,20.83
2022-12-13T10:08:21.731Z,22.70
2022-12-13T10:10:50.537Z,20.45
2022-12-13T10:13:42.031Z,25.90
2022-12-13T10:16:36.555Z,27.67
2022-12-13T10:19:36.847Z,22.25
2022-12-13T10:22:06.080Z,23.65
2022-12-13T10:24:51.963Z,24.83
2022-12-13T10:27:23.194Z,21.63
2022-12-13T10:29:58.015Z,28.95
2022-12-13T10:32:24.535Z,16.40
2022-12-13T10:34:50.999Z,23.80
2022-12-13T10:37:23.506Z,21.50
2022-12-13T10:39:50.507Z,23.33
2022-12-13T10:42:22.684Z,32.22
2022-12-13T10:45:10.608Z,25.63
2022-12-13T10:47:37.326Z,24.60
2022-12-13T10:50:04.226Z,20.95
2022-12-13T10:52:34.282Z,26.25
2022-12-13T10:55:30.168Z,29.85
2022-12-13T10:58:00.882Z,25.13
2022-12-13T11:00:47.652Z,18.20
2022-12-13T11:03:30.651Z,25.58
2022-12-13T11:06:23.164Z,22.00
2022-12-13T11:08:49.673Z,19.27
2022-12-13T11:11:18.459Z,16.10
2022-12-13T11:13:47.466Z,15.18
2022-12-13T11:16:30.570Z,12.85
2022-12-13T11:19:08.343Z,12.38
2022-12-13T11:21:37.475Z,8.85
2022-12-13T11:24:07.596Z,12.00
2022-12-13T11:26:37.815Z,10.05
2022-12-13T11:29:16.409Z,11.13
2022-12-13T11:32:23.112Z,11.35
2022-12-13T11:35:14.668Z,11.32
2022-12-13T11:38:14.701Z,9.35
2022-12-13T11:40:53.026Z,9.35
2022-12-13T11:43:32.491Z,9.15
2022-12-13T11:46:04.942Z,9.45
2022-12-13T11:49:16.594Z,11.75
2022-12-13T11:51:49.005Z,9.30
2022-12-13T11:54:28.218Z,7.90
2022-12-13T11:57:00.790Z,7.43
2022-12-13T11:59:27.897Z,7.80
2022-12-13T12:02:07.392Z,8.43
2022-12-13T12:04:58.331Z,6.85
2022-12-13T12:08:05.135Z,7.65
2022-12-13T12:10:36.369Z,10.10
2022-12-13T12:13:34.525Z,8.63
2022-12-13T12:16:43.184Z,12.85
2022-12-13T12:19:14.669Z,12.93
2022-12-13T12:22:12.714Z,8.77
2022-12-13T12:24:46.683Z,9.55
2022-12-13T12:27:23.125Z,10.85
2022-12-13T12:30:01.937Z,14.65
2022-12-13T12:32:34.477Z,9.90
2022-12-13T12:35:19.455Z,9.00
2022-12-13T12:38:03.928Z,8.95
2022-12-13T12:41:15.708Z,13.07
2022-12-13T12:43:42.593Z,15.48
2022-12-13T12:46:09.019Z,10.10
2022-12-13T12:49:13.262Z,10.18
2022-12-13T12:52:05.108Z,10.95
2022-12-13T12:55:09.591Z,9.63
2022-12-13T12:57:43.933Z,8.00
2022-12-13T13:00:19.013Z,9.57
2022-12-13T13:03:01.537Z,11.52
2022-12-13T13:05:57.102Z,9.27
2022-12-13T13:09:04.389Z,12.70
2022-12-13T13:11:43.237Z,13.90
2022-12-13T13:14:32.265Z,9.48
2022-12-13T13:17:00.629Z,16.45
2022-12-13T13:19:32.828Z,11.32
2022-12-13T13:22:01.341Z,8.35
2022-12-13T13:24:31.019Z,8.82
2022-12-13T13:27:09.584Z,13.52
2022-12-13T13:29:38.030Z,13.40
2022-12-13T13:32:12.456Z,8.82
2022-12-13T13:35:00.599Z,11.07
2022-12-13T13:37:43.878Z,12.55
2022-12-13T13:40:13.264Z,13.87
2022-12-13T13:42:57.097Z,9.65
2022-12-13T13:45:27.520Z,10.65
2022-12-13T13:48:19.581Z,10.88
2022-12-13T13:51:21.360Z,11.20
2022-12-13T13:54:08.437Z,9.00
2022-12-13T13:57:03.886Z,13.07
2022-12-13T13:59:55.156Z,12.18
2022-12-13T14:02:33.851Z,11.40
2022-12-13T14:05:47.161Z,10.05
2022-12-13T14:08:24.225Z,9.82
2022-12-13T14:11:41.855Z,9.75
2022-12-13T14:14:38.581Z,9.20
2022-12-13T14:17:14.318Z,16.70
2022-12-13T14:20:28.971Z,12.02
2022-12-13T14:25:33.629Z,8.80
2022-12-13T14:28:42.514Z,11.18
2022-12-13T14:31:47.977Z,8.82
2022-12-13T14:34:23.387Z,8.30
2022-12-13T14:37:00.838Z,17.70
2022-12-13T14:39:33.990Z,15.95
2022-12-13T14:42:02.807Z,14.48
2022-12-13T14:44:35.157Z,11.55
2022-12-13T14:47:08.201Z,11.80
2022-12-13T14:49:38.873Z,17.48
2022-12-13T14:52:09.387Z,17.35
2022-12-13T14:54:49.408Z,13.43
2022-12-13T14:57:19.416Z,14.95
2022-12-13T14:59:52.179Z,13.75
2022-12-13T15:02:31.134Z,12.68
2022-12-13T15:05:01.156Z,10.85
2022-12-13T15:07:30.485Z,13.02
2022-12-13T15:10:03.291Z,11.35
2022-12-13T15:12:30.649Z,7.25
2022-12-13T15:15:01.754Z,9.85
2022-12-13T15:17:32.879Z,10.27
2022-12-13T15:20:00.672Z,10.00
2022-12-13T15:22:29.746Z,10.60
2022-12-13T15:24:58.007Z,13.48
2022-12-13T15:27:25.434Z,10.93
2022-12-13T15:29:54.257Z,11.32
2022-12-13T15:32:23.315Z,11.07
2022-12-13T15:34:51.440Z,17.30
2022-12-13T15:37:29.006Z,11.73
2022-12-13T15:40:00.002Z,12.27
2022-12-13T15:42:36.970Z,13.60
2022-12-13T15:45:06.885Z,10.68
2022-12-13T15:47:33.646Z,10.55
2022-12-13T15:50:06.064Z,10.55
2022-12-13T15:52:36.485Z,12.82
2022-12-13T15:55:05.774Z,11.90
2022-12-13T15:57:48.310Z,15.00
2022-12-13T16:00:18.098Z,13.10
2022-12-13T16:03:11.442Z,13.13
2022-12-13T16:05:46.537Z,14.13
2022-12-13T16:08:30.042Z,13.02
2022-12-13T16:10:58.288Z,14.88
2022-12-13T16:13:33.674Z,13.27
2022-12-13T16:16:27.871Z,14.93
2022-12-13T16:18:57.708Z,12.23
2022-12-13T16:21:25.538Z,13.45
2022-12-13T16:23:52.484Z,18.60
2022-12-13T16:26:25.617Z,14.52
2022-12-13T16:28:58.624Z,14.85
2022-12-13T16:31:31.259Z,13.50
2022-12-13T16:33:57.832Z,10.53
2022-12-13T16:36:24.330Z,14.25
2022-12-13T16:38:51.535Z,15.18
2022-12-13T16:41:18.184Z,16.58
2022-12-13T16:43:54.273Z,18.15
2022-12-13T16:47:12.980Z,16.40
2022-12-13T16:49:28.506Z,15.13
2022-12-13T16:51:56.234Z,13.73
2022-12-13T16:54:25.053Z,16.85
2022-12-13T16:56:52.582Z,14.95
2022-12-13T16:59:22.561Z,14.90
2022-12-13T17:01:50.404Z,15.57
2022-12-13T17:04:21.586Z,17.65
2022-12-13T17:06:55.055Z,18.02
2022-12-13T17:09:22.653Z,14.68
2022-12-13T17:11:49.161Z,16.02
2022-12-13T17:14:15.609Z,17.70
2022-12-13T17:16:42.241Z,16.67
2022-12-13T17:19:10.784Z,17.05
2022-12-13T17:21:37.611Z,17.50
2022-12-13T17:24:04.357Z,16.73
2022-12-13T17:26:30.788Z,18.30
2022-12-13T17:28:57.275Z,18.73
2022-12-13T17:31:23.960Z,20.73
2022-12-13T17:33:50.507Z,16.35
2022-12-13T17:36:17.203Z,17.23
2022-12-13T17:38:45.759Z,18.25
2022-12-13T17:41:15.803Z,19.27
2022-12-13T17:43:43.192Z,15.57
2022-12-13T17:46:15.400Z,16.23
2022-12-13T17:48:43.031Z,18.90
2022-12-13T17:51:10.657Z,17.75
2022-12-13T17:53:39.453Z,16.25
2022-12-13T17:56:08.066Z,19.25
2022-12-13T17:58:35.473Z,16.20
2022-12-13T18:01:25.141Z,16.38
2022-12-13T18:03:54.122Z,18.38
2022-12-13T18:06:20.656Z,18.25
2022-12-13T18:08:47.770Z,16.85
2022-12-13T18:11:32.508Z,19.70
2022-12-13T18:14:00.020Z,20.67
2022-12-13T18:16:34.045Z,18.10
2022-12-13T18:19:03.947Z,19.02
2022-12-13T18:21:30.453Z,18.55
2022-12-13T18:23:59.260Z,21.63
2022-12-13T18:26:25.779Z,25.77
2022-12-13T18:28:52.339Z,26.48
2022-12-13T18:31:23.551Z,21.50
2022-12-13T18:33:52.516Z,23.17
2022-12-13T18:36:21.281Z,21.90
2022-12-13T18:38:48.053Z,23.77
2022-12-13T18:41:17.616Z,20.25
2022-12-13T18:43:44.827Z,21.73
2022-12-13T18:46:13.421Z,20.90
2022-12-13T18:48:40.944Z,25.10
2022-12-13T18:51:08.934Z,33.30
2022-12-13T18:53:37.214Z,25.08
2022-12-13T18:56:16.200Z,24.88
2022-12-13T18:58:45.704Z,24.70
2022-12-13T19:01:13.155Z,25.38
2022-12-13T19:03:41.507Z,26.70
2022-12-13T19:06:08.105Z,26.95
2022-12-13T19:08:36.368Z,26.40
2022-12-13T19:11:04.023Z,29.58
2022-12-13T19:13:32.297Z,25.23
2022-12-13T19:16:06.429Z,27.50
2022-12-13T19:18:33.590Z,28.10
2022-12-13T19:21:00.264Z,26.52
2022-12-13T19:23:27.123Z,23.73
2022-12-13T19:25:53.912Z,27.58
2022-12-13T19:28:20.400Z,24.77
2022-12-13T19:30:47.883Z,27.42
2022-12-13T19:33:15.046Z,25.08
2022-12-13T19:35:43.203Z,25.67
2022-12-13T19:38:10.374Z,21.88
2022-12-13T19:40:41.017Z,24.70
2022-12-13T19:43:07.725Z,26.95
2022-12-13T19:45:34.248Z,23.08
2022-12-13T19:48:00.778Z,30.30
2022-12-13T19:50:29.409Z,25.83
2022-12-13T19:52:56.127Z,33.25
2022-12-13T19:55:22.624Z,24.67
2022-12-13T19:57:49.180Z,24.80
2022-12-13T20:00:16.095Z,27.40
2022-12-13T20:02:42.681Z,23.42
2022-12-13T20:05:09.598Z,25.30
2022-12-13T20:07:36.319Z,24.90
2022-12-13T20:10:04.013Z,22.73
2022-12-13T20:12:34.189Z,26.13
2022-12-13T20:15:05.019Z,27.25
2022-12-13T20:17:32.324Z,24.75
2022-12-13T20:19:58.870Z,24.38
2022-12-13T20:22:25.363Z,26.40
2022-12-13T20:24:51.842Z,26.67
2022-12-13T20:27:19.977Z,27.63
2022-12-13T20:29:48.688Z,27.67
2022-12-13T20:32:15.352Z,24.77
2022-12-13T20:34:42.149Z,27.50
2022-12-13T20:37:08.754Z,24.52
2022-12-13T20:39:35.305Z,26.30
2022-12-13T20:42:01.758Z,28.23
2022-12-13T20:44:28.371Z,26.65
2022-12-13T20:46:54.993Z,23.55
2022-12-13T20:49:21.672Z,26.75
2022-12-13T20:51:48.134Z,26.15
2022-12-13T20:54:14.585Z,28.27
2022-12-13T20:56:41.120Z,24.95
2022-12-13T20:59:10.810Z,26.77
2022-12-13T21:01:40.525Z,28.17
2022-12-13T21:04:08.686Z,29.25
2022-12-13T21:06:37.007Z,23.92
2022-12-13T21:09:04.798Z,28.38
2022-12-13T21:11:39.848Z,24.73
2022-12-13T21:14:11.151Z,25.65
2022-12-13T21:16:53.215Z,30.00
2022-12-13T21:19:22.560Z,27.05
2022-12-13T21:21:49.539Z,26.38
2022-12-13T21:24:17.322Z,25.50
2022-12-13T21:26:44.604Z,25.92
2022-12-13T21:29:13.068Z,24.25
2022-12-13T21:31:44.508Z,27.20
2022-12-13T21:34:16.606Z,26.45
2022-12-13T21:36:45.413Z,24.25
2022-12-13T21:39:20.111Z,23.85
2022-12-13T21:41:46.644Z,27.15
2022-12-13T21:44:16.339Z,23.27
2022-12-13T21:49:29.784Z,25.45
2022-12-13T21:51:56.213Z,27.90
2022-12-13T21:54:22.870Z,26.00
2022-12-13T21:57:08.415Z,25.63
2022-12-13T21:59:35.065Z,24.13
2022-12-13T22:02:11.873Z,24.73
2022-12-13T22:04:44.611Z,30.33
2022-12-13T22:07:20.198Z,24.88
2022-12-13T22:09:48.043Z,26.48
2022-12-13T22:12:30.422Z,25.65
2022-12-13T22:14:56.930Z,22.35
2022-12-13T22:17:31.037Z,23.70
2022-12-13T22:19:59.834Z,21.15
2022-12-13T22:22:26.582Z,21.95
2022-12-13T22:24:54.166Z,24.15
2022-12-13T22:27:25.424Z,25.63
2022-12-13T22:29:57.242Z,26.65
2022-12-13T22:32:28.818Z,26.95
2022-12-13T22:34:55.974Z,26.05
2022-12-13T22:37:22.962Z,28.17
2022-12-13T22:39:49.872Z,25.75
2022-12-13T22:42:16.346Z,23.92
2022-12-13T22:44:43.012Z,27.13
2022-12-13T22:47:09.542Z,27.85
2022-12-13T22:49:36.041Z,28.48
2022-12-13T22:52:02.602Z,24.67
2022-12-13T22:54:29.089Z,24.90
2022-12-13T22:56:55.554Z,26.00
2022-12-13T22:59:22.057Z,28.23
2022-12-13T23:01:48.590Z,26.67
2022-12-13T23:04:15.488Z,25.50
2022-12-13T23:06:42.022Z,22.60
2022-12-13T23:09:12.594Z,25.67
2022-12-13T23:11:58.126Z,26.67
2022-12-13T23:14:30.614Z,28.38
2022-12-13T23:16:57.589Z,24.08
2022-12-13T23:22:10.773Z,26.83
2022-12-13T23:24:37.256Z,26.67
2022-12-13T23:27:03.843Z,26.02
2022-12-13T23:29:30.679Z,23.30
2022-12-13T23:31:57.103Z,24.90
2022-12-13T23:34:23.630Z,23.67
2022-12-13T23:36:50.099Z,27.13
2022-12-13T23:39:16.562Z,25.65
2022-12-13T23:41:43.064Z,29.08
2022-12-13T23:44:10.105Z,26.63
2022-12-13T23:46:37.012Z,26.80
2022-12-13T23:49:05.434Z,26.83
2022-12-13T23:51:32.502Z,25.85
2022-12-13T23:53:59.204Z,29.90
2022-12-13T23:56:25.693Z,29.65
2022-12-13T23:58:52.175Z,25.85
